Time;durP1;ratioP1;P1;durP2;ratioP2;P2;SDS_P1;SDS_P2;PMS_P1;PMS_P2;Temp;Humidity;BMP_temperature;BMP_pressure;BME280_temperature;BME280_humidity;BME280_pressure;Samples;Min_cycle;Max_cycle;Signal;HPM_P1;HPM_P2
2023/04/25 00:00:11;;;;;;;7.80;7.40;;;10.80;28.60;;;;;;5002220;28;20653;-58
2023/04/25 00:02:37;;;;;;;7.03;6.83;;;10.90;28.70;;;;;;5000502;28;20217;-59
2023/04/25 00:05:03;;;;;;;7.63;7.33;;;10.80;28.40;;;;;;5001269;28;20431;-59
2023/04/25 00:07:28;;;;;;;7.20;6.90;;;10.80;28.40;;;;;;5002380;28;20177;-59
2023/04/25 00:09:54;;;;;;;6.70;6.47;;;10.90;28.20;;;;;;5001177;28;20781;-58
2023/04/25 00:12:21;;;;;;;7.20;6.80;;;10.90;28.00;;;;;;5000807;28;20177;-58
2023/04/25 00:14:49;;;;;;;6.90;6.70;;;10.90;28.30;;;;;;5001317;28;20205;-59
2023/04/25 00:17:16;;;;;;;7.27;6.97;;;11.00;28.20;;;;;;5002541;28;20921;-59
2023/04/25 00:19:42;;;;;;;6.80;6.60;;;11.10;27.70;;;;;;5000864;28;20428;-59
2023/04/25 00:22:08;;;;;;;7.47;7.17;;;11.10;28.10;;;;;;5001706;28;20416;-57
2023/04/25 00:24:33;;;;;;;7.53;7.23;;;11.20;27.90;;;;;;5001532;28;20431;-58
2023/04/25 00:26:59;;;;;;;7.37;7.07;;;11.20;27.80;;;;;;4999469;28;20226;-58
2023/04/25 00:29:25;;;;;;;8.10;7.80;;;11.20;27.70;;;;;;5000794;28;20215;-58
2023/04/25 00:31:50;;;;;;;7.00;6.80;;;11.20;28.00;;;;;;4984645;28;20185;-58
2023/04/25 00:34:16;;;;;;;7.20;6.90;;;11.40;28.10;;;;;;5001472;28;20204;-58
2023/04/25 00:36:41;;;;;;;8.00;7.30;;;11.30;27.70;;;;;;4999314;28;20498;-57
2023/04/25 00:39:07;;;;;;;7.97;7.67;;;11.40;27.40;;;;;;4999630;28;20178;-57
2023/04/25 00:41:33;;;;;;;7.73;7.43;;;11.40;27.30;;;;;;5000783;28;20311;-57
2023/04/25 00:44:00;;;;;;;7.53;7.23;;;11.30;27.70;;;;;;5000694;28;20185;-58
2023/04/25 00:46:26;;;;;;;7.80;7.40;;;11.20;27.70;;;;;;4998813;28;20173;-61
2023/04/25 00:48:51;;;;;;;7.00;6.80;;;11.10;27.80;;;;;;5002304;28;20804;-62
2023/04/25 00:51:20;;;;;;;6.87;6.67;;;11.10;28.10;;;;;;5002003;28;20719;-62
2023/04/25 00:53:48;;;;;;;7.80;7.50;;;11.30;27.80;;;;;;5000055;28;20287;-62
2023/04/25 00:56:15;;;;;;;8.67;8.27;;;11.30;27.30;;;;;;5001123;28;20451;-62
2023/04/25 00:58:42;;;;;;;7.37;7.17;;;11.30;27.50;;;;;;5000046;28;20420;-64
2023/04/25 01:01:10;;;;;;;8.70;8.27;;;11.30;27.30;;;;;;5001289;28;20775;-62
2023/04/25 01:03:40;;;;;;;7.70;7.40;;;11.10;27.80;;;;;;5002773;28;20428;-62
2023/04/25 01:06:08;;;;;;;8.27;7.93;;;11.20;27.50;;;;;;5000723;28;20428;-62
2023/04/25 01:08:34;;;;;;;8.57;8.27;;;11.20;27.90;;;;;;5001121;28;20421;-62
2023/04/25 01:10:59;;;;;;;8.20;7.90;;;11.20;28.40;;;;;;4995114;28;20513;-62
2023/04/25 01:13:25;;;;;;;8.00;7.80;;;11.30;28.30;;;;;;4999884;28;20431;-62
2023/04/25 01:15:50;;;;;;;8.80;8.40;;;11.50;28.20;;;;;;4999370;28;20216;-62
2023/04/25 01:18:16;;;;;;;8.77;8.37;;;11.60;27.50;;;;;;4999498;28;20183;-62
2023/04/25 01:20:43;;;;;;;7.97;7.57;;;11.80;27.00;;;;;;5006778;28;20208;-63
2023/04/25 01:23:09;;;;;;;8.13;7.83;;;12.00;27.10;;;;;;5018720;28;20177;-63
2023/04/25 01:25:35;;;;;;;8.40;8.10;;;12.00;26.80;;;;;;5020713;28;20466;-63
2023/04/25 01:28:01;;;;;;;8.90;8.40;;;12.10;26.50;;;;;;5018324;28;20477;-62
2023/04/25 01:30:27;;;;;;;8.20;7.90;;;12.20;26.50;;;;;;5018163;28;20419;-62
2023/04/25 01:32:56;;;;;;;8.20;7.90;;;12.30;26.20;;;;;;5016320;28;20235;-62
2023/04/25 01:35:23;;;;;;;8.90;8.40;;;12.30;26.20;;;;;;4999499;28;20529;-63
2023/04/25 01:37:50;;;;;;;8.20;7.97;;;12.10;26.40;;;;;;4999629;28;20443;-62
2023/04/25 01:40:18;;;;;;;8.30;8.00;;;11.70;27.40;;;;;;4999393;28;20888;-63
2023/04/25 01:42:44;;;;;;;8.83;8.43;;;11.40;27.90;;;;;;5000731;28;20929;-62
2023/04/25 01:45:11;;;;;;;7.67;7.47;;;11.30;28.80;;;;;;5000131;28;20770;-62
2023/04/25 01:47:39;;;;;;;8.80;8.40;;;11.30;28.50;;;;;;4999715;28;20454;-63
2023/04/25 01:50:06;;;;;;;9.10;8.70;;;11.30;28.40;;;;;;5000954;28;20424;-62
2023/04/25 01:52:32;;;;;;;8.60;8.30;;;11.30;28.20;;;;;;4999248;28;20474;-62
2023/04/25 01:54:59;;;;;;;8.40;8.13;;;11.30;28.90;;;;;;4998568;28;20893;-63
2023/04/25 01:57:25;;;;;;;8.67;8.27;;;11.30;28.70;;;;;;4998019;28;20316;-63
2023/04/25 01:59:51;;;;;;;8.90;8.50;;;11.30;28.70;;;;;;4997100;28;20499;-62
2023/04/25 02:02:16;;;;;;;8.60;8.20;;;11.30;28.90;;;;;;4997510;28;20208;-62
2023/04/25 02:04:42;;;;;;;8.50;8.20;;;11.20;28.80;;;;;;4998677;28;20452;-62
2023/04/25 02:07:08;;;;;;;8.70;8.40;;;11.00;29.50;;;;;;5001126;28;20503;-62
2023/04/25 02:09:33;;;;;;;8.70;8.30;;;10.90;29.70;;;;;;4999742;28;20185;-59
2023/04/25 02:11:59;;;;;;;9.30;9.00;;;10.80;29.90;;;;;;5000962;28;20186;-59
2023/04/25 02:14:25;;;;;;;9.50;8.90;;;10.60;30.40;;;;;;5001780;28;20568;-59
2023/04/25 02:16:52;;;;;;;8.67;8.20;;;10.70;30.60;;;;;;5001563;28;20419;-59
2023/04/25 02:19:18;;;;;;;9.30;9.00;;;10.60;30.70;;;;;;5000765;28;20180;-58
2023/04/25 02:21:43;;;;;;;9.10;8.80;;;10.60;31.20;;;;;;5000624;28;20424;-59
2023/04/25 02:24:09;;;;;;;9.20;8.80;;;10.60;31.60;;;;;;5001998;28;20652;-63
2023/04/25 02:26:34;;;;;;;8.10;7.80;;;10.60;31.20;;;;;;5002424;28;20272;-63
2023/04/25 02:29:01;;;;;;;8.07;7.77;;;10.70;31.10;;;;;;5004631;28;20260;-63
2023/04/25 02:31:26;;;;;;;9.20;8.90;;;10.70;31.10;;;;;;5001289;28;20186;-63
2023/04/25 02:33:52;;;;;;;8.00;7.80;;;10.90;31.60;;;;;;5001917;28;20428;-63
2023/04/25 02:36:17;;;;;;;9.00;8.60;;;11.10;30.50;;;;;;5001224;28;20181;-63
2023/04/25 02:38:43;;;;;;;8.90;8.40;;;11.40;29.70;;;;;;5000719;28;20177;-62
2023/04/25 02:41:09;;;;;;;8.50;8.20;;;11.60;29.10;;;;;;5002738;28;20234;-63
2023/04/25 02:43:35;;;;;;;8.53;8.23;;;11.70;28.70;;;;;;5001971;28;20181;-59
2023/04/25 02:46:00;;;;;;;8.60;8.30;;;11.70;28.20;;;;;;5000533;28;20439;-59
2023/04/25 02:48:26;;;;;;;9.00;8.60;;;11.70;28.40;;;;;;5000917;28;20522;-63
2023/04/25 02:50:51;;;;;;;8.90;8.60;;;11.50;28.70;;;;;;5002075;28;20616;-63
2023/04/25 02:53:17;;;;;;;8.53;8.17;;;11.20;29.10;;;;;;5002381;28;20177;-62
2023/04/25 02:55:43;;;;;;;9.47;9.07;;;10.90;29.60;;;;;;5002502;28;20303;-63
2023/04/25 02:58:08;;;;;;;8.87;8.47;;;10.70;30.00;;;;;;5002889;28;20173;-63
2023/04/25 03:00:34;;;;;;;8.97;8.63;;;10.60;30.10;;;;;;5002750;28;20173;-62
2023/04/25 03:03:00;;;;;;;9.43;9.03;;;10.70;30.20;;;;;;5001620;28;20224;-62
2023/04/25 03:05:25;;;;;;;8.47;8.07;;;10.60;30.00;;;;;;5003017;28;20616;-64
2023/04/25 03:07:51;;;;;;;9.33;8.73;;;10.60;30.10;;;;;;5002127;28;20185;-62
2023/04/25 03:10:16;;;;;;;9.60;9.30;;;10.60;30.00;;;;;;5001818;28;20668;-62
2023/04/25 03:12:42;;;;;;;9.47;8.97;;;10.60;30.10;;;;;;5001980;28;20177;-63
2023/04/25 03:15:08;;;;;;;9.10;8.70;;;10.50;30.00;;;;;;5001741;28;20275;-62
2023/04/25 03:17:34;;;;;;;9.40;9.00;;;10.50;30.20;;;;;;5000798;28;20173;-62
2023/04/25 03:20:00;;;;;;;8.70;8.40;;;10.40;30.20;;;;;;5001322;28;20448;-58
2023/04/25 03:22:26;;;;;;;9.60;9.20;;;10.30;30.40;;;;;;5002093;28;20177;-58
2023/04/25 03:24:52;;;;;;;9.43;9.13;;;10.40;30.40;;;;;;5002404;28;20436;-59
2023/04/25 03:27:17;;;;;;;8.90;8.60;;;10.60;29.80;;;;;;4999304;28;20188;-58
2023/04/25 03:29:43;;;;;;;9.30;9.00;;;10.40;29.80;;;;;;5003270;28;20185;-62
2023/04/25 03:32:09;;;;;;;9.07;8.73;;;10.40;29.90;;;;;;5003047;28;20174;-63
2023/04/25 03:34:35;;;;;;;9.93;9.37;;;10.20;29.70;;;;;;5004979;28;20275;-63
2023/04/25 03:37:00;;;;;;;9.17;8.53;;;10.20;30.60;;;;;;5004692;28;20268;-62
2023/04/25 03:39:26;;;;;;;9.83;9.30;;;10.30;30.50;;;;;;5008736;28;21130;-62
2023/04/25 03:41:52;;;;;;;9.37;9.07;;;10.40;30.10;;;;;;5004783;28;20508;-63
2023/04/25 03:44:17;;;;;;;8.70;8.33;;;10.60;30.50;;;;;;5005287;28;20177;-63
2023/04/25 03:46:43;;;;;;;10.23;9.63;;;10.70;29.60;;;;;;5006399;28;20184;-62
2023/04/25 03:49:09;;;;;;;9.10;8.70;;;10.70;29.70;;;;;;5007107;28;20185;-63
2023/04/25 03:51:34;;;;;;;8.70;8.40;;;10.70;29.40;;;;;;5008003;28;20545;-62
2023/04/25 03:54:00;;;;;;;9.67;9.17;;;10.70;29.50;;;;;;5009842;28;20181;-61
2023/04/25 03:56:26;;;;;;;9.23;8.90;;;10.60;29.80;;;;;;5009314;28;20561;-63
2023/04/25 03:58:52;;;;;;;9.70;9.20;;;10.40;30.50;;;;;;5007719;28;20427;-59
2023/04/25 04:01:17;;;;;;;8.93;8.50;;;10.30;30.30;;;;;;5008186;28;20177;-58
2023/04/25 04:03:43;;;;;;;8.87;8.47;;;10.40;30.20;;;;;;5010410;28;20196;-59
2023/04/25 04:06:09;;;;;;;9.63;9.30;;;10.30;30.10;;;;;;5008836;28;20192;-58
2023/04/25 04:08:35;;;;;;;9.87;9.37;;;10.20;30.70;;;;;;5011572;28;20612;-58
2023/04/25 04:11:01;;;;;;;10.27;9.77;;;10.10;31.30;;;;;;5008946;28;20474;-58
2023/04/25 04:13:28;;;;;;;10.23;9.63;;;10.10;31.60;;;;;;5009703;28;20464;-58
2023/04/25 04:15:55;;;;;;;10.70;10.30;;;10.20;31.30;;;;;;5009681;28;20639;-63
2023/04/25 04:18:21;;;;;;;10.53;10.03;;;10.30;30.70;;;;;;5010242;28;20475;-58
2023/04/25 04:20:47;;;;;;;9.67;9.27;;;10.20;31.10;;;;;;5010868;28;20416;-57
2023/04/25 04:23:12;;;;;;;9.67;9.07;;;10.20;31.70;;;;;;5010022;28;20978;-49
2023/04/25 04:25:39;;;;;;;10.80;10.40;;;10.40;31.40;;;;;;5011403;28;20637;-60
2023/04/25 04:28:05;;;;;;;9.80;9.50;;;10.60;30.30;;;;;;5010611;28;20189;-56
2023/04/25 04:30:33;;;;;;;10.90;10.50;;;10.50;30.60;;;;;;5011127;28;20512;-56
2023/04/25 04:33:00;;;;;;;11.33;10.93;;;10.40;30.80;;;;;;5009464;28;20470;-57
2023/04/25 04:35:26;;;;;;;10.60;10.00;;;10.50;30.80;;;;;;5011250;28;20460;-61
2023/04/25 04:37:52;;;;;;;9.80;9.40;;;10.40;30.50;;;;;;5010150;28;20470;-54
2023/04/25 04:40:18;;;;;;;10.20;9.80;;;10.50;30.20;;;;;;5009846;28;20177;-54
2023/04/25 04:42:47;;;;;;;11.27;10.70;;;10.70;30.00;;;;;;5010800;28;20455;-54
2023/04/25 04:45:14;;;;;;;9.97;9.47;;;10.70;30.00;;;;;;5011087;28;20184;-54
2023/04/25 04:47:40;;;;;;;9.93;9.47;;;10.60;30.20;;;;;;5011481;28;20456;-52
2023/04/25 04:50:10;;;;;;;9.83;9.47;;;10.50;30.60;;;;;;5011639;28;20440;-57
2023/04/25 04:52:37;;;;;;;10.67;10.10;;;10.60;30.60;;;;;;5010775;28;20451;-55
2023/04/25 04:55:04;;;;;;;10.43;9.93;;;10.60;30.40;;;;;;5012744;28;20606;-54
2023/04/25 04:57:30;;;;;;;10.33;9.83;;;10.50;30.50;;;;;;5011553;28;20774;-53
2023/04/25 04:59:56;;;;;;;11.10;10.50;;;10.40;31.00;;;;;;5011447;28;20417;-51
2023/04/25 05:02:22;;;;;;;10.93;10.40;;;10.30;31.70;;;;;;5010586;28;20417;-49
2023/04/25 05:04:48;;;;;;;11.23;10.67;;;10.30;31.70;;;;;;5011416;28;20177;-52
2023/04/25 05:07:13;;;;;;;11.57;11.03;;;10.20;31.70;;;;;;5010613;28;20428;-53
2023/04/25 05:09:39;;;;;;;11.73;11.23;;;10.00;32.20;;;;;;5010685;28;20201;-52
2023/04/25 05:12:05;;;;;;;11.00;10.43;;;10.00;32.70;;;;;;5011160;28;20574;-54
2023/04/25 05:14:31;;;;;;;10.93;10.40;;;9.90;33.90;;;;;;5011096;28;20470;-50
2023/04/25 05:16:56;;;;;;;11.23;10.70;;;10.00;32.80;;;;;;5010720;28;20178;-54
2023/04/25 05:19:23;;;;;;;11.20;10.50;;;10.10;32.50;;;;;;5011452;28;20542;-54
2023/04/25 05:21:49;;;;;;;11.30;10.80;;;10.30;32.20;;;;;;5010573;28;20178;-51
2023/04/25 05:24:14;;;;;;;11.43;10.93;;;10.40;31.80;;;;;;5009674;28;20420;-51
2023/04/25 05:26:40;;;;;;;11.90;11.20;;;10.40;31.90;;;;;;5011937;28;20421;-52
2023/04/25 05:29:06;;;;;;;11.73;10.93;;;10.30;31.80;;;;;;5011195;28;20185;-55
2023/04/25 05:31:32;;;;;;;11.40;10.90;;;10.30;31.80;;;;;;5010205;28;20646;-59
2023/04/25 05:33:58;;;;;;;11.90;11.30;;;10.60;31.70;;;;;;5008352;28;20709;-58
2023/04/25 05:36:23;;;;;;;10.33;9.83;;;10.60;32.70;;;;;;5010127;28;20428;-58
2023/04/25 05:38:49;;;;;;;11.27;10.77;;;10.50;30.60;;;;;;5011083;28;20188;-58
2023/04/25 05:41:15;;;;;;;10.23;9.73;;;10.50;31.30;;;;;;5010853;28;20178;-59
2023/04/25 05:43:45;;;;;;;10.20;9.70;;;10.80;30.70;;;;;;5012655;28;20173;-58
2023/04/25 05:46:11;;;;;;;11.03;10.43;;;11.00;30.00;;;;;;5018675;28;20706;-57
2023/04/25 05:48:37;;;;;;;11.10;10.33;;;11.20;28.30;;;;;;5016037;28;20421;-58
2023/04/25 05:51:03;;;;;;;9.40;9.00;;;11.40;28.00;;;;;;5005568;28;20421;-57
2023/04/25 05:53:29;;;;;;;11.80;11.20;;;11.50;27.70;;;;;;5012244;28;20788;-58
2023/04/25 05:55:54;;;;;;;9.87;9.57;;;11.20;27.90;;;;;;5012932;28;20229;-58
2023/04/25 05:58:20;;;;;;;11.13;10.53;;;11.20;28.20;;;;;;5013951;28;20221;-58
2023/04/25 06:00:46;;;;;;;11.17;10.60;;;10.90;27.90;;;;;;5013240;28;20172;-57
2023/04/25 06:03:14;;;;;;;10.20;9.70;;;10.70;28.40;;;;;;5009939;28;20650;-58
2023/04/25 06:05:42;;;;;;;9.47;9.00;;;10.60;28.40;;;;;;4996461;28;20178;-58
2023/04/25 06:08:07;;;;;;;10.50;9.80;;;10.60;28.00;;;;;;4994227;28;20417;-58
2023/04/25 06:10:33;;;;;;;9.87;9.47;;;10.60;28.10;;;;;;4994361;28;20494;-57
2023/04/25 06:12:59;;;;;;;9.90;9.40;;;10.60;28.10;;;;;;4993575;28;20646;-58
2023/04/25 06:15:24;;;;;;;10.17;9.70;;;10.50;28.70;;;;;;4993959;28;20209;-58
2023/04/25 06:17:50;;;;;;;9.40;9.10;;;10.50;28.80;;;;;;4994919;28;20409;-58
2023/04/25 06:20:16;;;;;;;10.50;9.90;;;10.50;28.90;;;;;;4993900;28;20181;-58
2023/04/25 06:22:41;;;;;;;10.73;10.33;;;10.60;28.50;;;;;;4993498;28;20174;-58
2023/04/25 06:25:07;;;;;;;9.77;9.47;;;10.70;28.40;;;;;;4993979;28;20182;-58
2023/04/25 06:27:34;;;;;;;10.70;10.20;;;10.60;28.60;;;;;;4993819;28;20545;-58
2023/04/25 06:29:59;;;;;;;10.87;10.47;;;10.60;28.50;;;;;;4993614;28;20421;-59
2023/04/25 06:32:27;;;;;;;9.60;9.27;;;10.80;28.50;;;;;;4992660;28;20440;-59
2023/04/25 06:34:53;;;;;;;9.60;9.23;;;10.70;28.20;;;;;;4993599;28;20212;-57
2023/04/25 06:37:18;;;;;;;10.40;10.00;;;10.80;28.40;;;;;;4993782;28;20413;-58
2023/04/25 06:39:44;;;;;;;9.63;8.93;;;10.90;27.90;;;;;;4992635;28;20185;-58
2023/04/25 06:42:10;;;;;;;10.00;9.47;;;10.70;28.60;;;;;;4992796;28;20200;-59
2023/04/25 06:44:36;;;;;;;9.53;9.07;;;10.60;29.20;;;;;;4992773;28;20220;-58
2023/04/25 06:47:02;;;;;;;10.00;9.70;;;10.40;30.70;;;;;;4992753;28;20960;-58
2023/04/25 06:49:27;;;;;;;10.00;9.50;;;10.40;31.80;;;;;;4993437;28;20178;-58
2023/04/25 06:51:53;;;;;;;11.47;10.97;;;10.20;32.50;;;;;;4991723;28;20409;-58
2023/04/25 06:54:19;;;;;;;10.43;10.03;;;10.10;33.00;;;;;;4992769;28;20202;-58
2023/04/25 06:56:44;;;;;;;11.10;10.40;;;10.00;33.50;;;;;;4993220;28;20542;-57
2023/04/25 06:59:10;;;;;;;11.07;10.63;;;10.00;33.50;;;;;;4993331;28;20188;-58
2023/04/25 07:01:36;;;;;;;11.17;10.67;;;10.00;33.70;;;;;;4992853;28;20174;-58
2023/04/25 07:04:01;;;;;;;11.40;10.90;;;10.10;35.30;;;;;;4993252;28;20296;-58
2023/04/25 07:06:27;;;;;;;10.90;10.40;;;10.00;36.00;;;;;;4993217;28;20178;-59
2023/04/25 07:08:53;;;;;;;12.33;11.73;;;10.00;37.70;;;;;;4992556;28;20178;-57
2023/04/25 07:11:19;;;;;;;11.60;11.10;;;10.00;36.50;;;;;;4992458;28;20410;-61
2023/04/25 07:13:45;;;;;;;10.70;10.30;;;10.20;36.10;;;;;;4993142;28;20425;-62
2023/04/25 07:16:20;;;;;;;11.73;11.23;;;10.40;35.70;;;;;;4992414;28;20210;-63
2023/04/25 07:18:45;;;;;;;10.97;10.47;;;10.70;35.10;;;;;;4993137;28;20669;-62
2023/04/25 07:21:11;;;;;;;11.10;10.60;;;10.90;34.60;;;;;;4976307;28;20421;-63
2023/04/25 07:23:37;;;;;;;12.70;12.10;;;10.90;35.80;;;;;;4992888;28;20182;-61
2023/04/25 07:26:03;;;;;;;11.60;11.10;;;10.70;36.60;;;;;;4992841;28;20552;-62
2023/04/25 07:28:28;;;;;;;11.80;11.20;;;10.60;36.80;;;;;;4992779;28;20417;-61
2023/04/25 07:30:54;;;;;;;11.67;11.17;;;10.50;38.70;;;;;;4992819;28;20655;-62
2023/04/25 07:33:20;;;;;;;11.03;10.53;;;10.40;38.40;;;;;;4991468;28;20273;-62
2023/04/25 07:35:46;;;;;;;11.80;11.30;;;10.30;38.60;;;;;;4991958;28;20256;-62
2023/04/25 07:38:11;;;;;;;10.20;9.67;;;10.20;39.10;;;;;;4992639;28;20417;-62
2023/04/25 07:40:37;;;;;;;11.10;10.60;;;10.10;41.10;;;;;;4992723;28;20173;-62
2023/04/25 07:43:02;;;;;;;11.57;10.97;;;10.10;40.90;;;;;;4992187;28;20635;-61
2023/04/25 07:45:28;;;;;;;11.90;11.40;;;10.10;41.70;;;;;;4992506;28;20182;-62
2023/04/25 07:47:54;;;;;;;11.73;11.20;;;10.20;41.80;;;;;;4992478;28;20185;-61
2023/04/25 07:50:19;;;;;;;11.50;11.00;;;10.10;41.40;;;;;;4992377;28;20177;-62
2023/04/25 07:52:45;;;;;;;11.97;11.50;;;10.20;41.00;;;;;;4990475;28;20178;-57
2023/04/25 07:55:11;;;;;;;12.07;11.47;;;10.10;41.70;;;;;;4990510;28;20293;-58
2023/04/25 07:57:38;;;;;;;11.90;11.30;;;9.90;43.00;;;;;;4976114;28;20174;-58
2023/04/25 08:00:05;;;;;;;11.90;11.30;;;9.80;44.50;;;;;;4992264;28;20554;-58
2023/04/25 08:02:30;;;;;;;11.60;11.10;;;9.70;45.70;;;;;;4991055;28;20468;-61
2023/04/25 08:04:56;;;;;;;12.20;11.60;;;9.60;45.80;;;;;;4990697;28;20839;-62
2023/04/25 08:07:22;;;;;;;11.30;10.80;;;9.50;45.50;;;;;;4990618;28;20196;-63
2023/04/25 08:09:47;;;;;;;11.43;10.83;;;9.60;47.30;;;;;;4991063;28;20178;-62
2023/04/25 08:12:13;;;;;;;11.20;10.70;;;9.50;47.30;;;;;;4990767;28;20178;-62
2023/04/25 08:14:39;;;;;;;11.93;11.30;;;9.50;48.20;;;;;;4991867;28;20580;-62
2023/04/25 08:17:05;;;;;;;11.60;11.00;;;9.50;48.20;;;;;;4991240;28;20182;-62
2023/04/25 08:19:31;;;;;;;11.33;10.83;;;9.50;48.10;;;;;;4989993;28;20834;-63
2023/04/25 08:21:57;;;;;;;11.07;10.57;;;9.60;47.20;;;;;;4990723;28;20413;-62
2023/04/25 08:24:23;;;;;;;11.47;10.97;;;9.60;47.00;;;;;;4990126;28;20185;-58
2023/04/25 08:26:49;;;;;;;11.27;10.77;;;9.60;47.30;;;;;;4990389;28;20555;-58
2023/04/25 08:29:14;;;;;;;10.97;10.37;;;9.60;48.40;;;;;;4989062;28;20413;-58
2023/04/25 08:31:40;;;;;;;11.70;11.10;;;9.60;47.90;;;;;;4991103;28;20409;-58
2023/04/25 08:34:06;;;;;;;11.80;11.20;;;9.60;48.60;;;;;;4991604;28;20771;-58
2023/04/25 08:36:32;;;;;;;11.20;10.70;;;9.60;47.40;;;;;;4991599;28;20610;-58
2023/04/25 08:38:58;;;;;;;11.13;10.60;;;9.50;48.70;;;;;;4990216;28;20635;-58
2023/04/25 08:41:25;;;;;;;11.87;11.20;;;9.60;49.40;;;;;;4990295;28;20792;-58
2023/04/25 08:43:51;;;;;;;11.30;10.70;;;9.70;49.50;;;;;;4989688;28;20452;-58
2023/04/25 08:46:18;;;;;;;11.23;10.70;;;9.70;49.20;;;;;;4991472;28;20427;-57
2023/04/25 08:48:45;;;;;;;11.10;10.60;;;9.70;49.10;;;;;;4991530;28;20413;-57
2023/04/25 08:51:21;;;;;;;11.33;10.83;;;9.70;48.70;;;;;;4991020;28;20424;-57
2023/04/25 08:53:50;;;;;;;10.73;10.13;;;9.70;48.80;;;;;;4989712;28;20567;-57
2023/04/25 08:56:25;;;;;;;12.23;11.33;;;9.70;48.60;;;;;;4991265;28;20514;-57
2023/04/25 08:58:51;;;;;;;11.57;11.00;;;9.70;48.90;;;;;;4990519;28;20412;-57
2023/04/25 09:01:18;;;;;;;11.00;10.50;;;9.70;47.90;;;;;;4989744;28;20805;-58
2023/04/25 09:03:44;;;;;;;11.97;11.37;;;9.80;46.90;;;;;;4990959;28;20601;-57
2023/04/25 09:06:13;;;;;;;12.23;11.70;;;9.70;48.20;;;;;;4991300;28;20526;-58
2023/04/25 09:08:40;;;;;;;11.77;11.17;;;9.70;47.90;;;;;;4991209;28;20405;-58
2023/04/25 09:11:07;;;;;;;11.03;10.47;;;9.60;48.00;;;;;;4990088;28;20786;-58
2023/04/25 09:13:33;;;;;;;12.00;11.20;;;9.60;48.50;;;;;;4990274;28;20423;-58
2023/04/25 09:15:59;;;;;;;11.47;10.90;;;9.50;47.70;;;;;;4992405;28;20823;-59
2023/04/25 09:18:28;;;;;;;12.30;11.50;;;9.50;48.50;;;;;;4995138;28;20170;-58
2023/04/25 09:20:56;;;;;;;12.00;11.50;;;9.50;48.80;;;;;;5003831;28;21183;-57
2023/04/25 09:23:23;;;;;;;11.57;11.07;;;9.50;48.40;;;;;;4993258;28;20459;-58
2023/04/25 09:25:50;;;;;;;12.77;12.17;;;9.50;49.70;;;;;;4991808;28;20461;-57
2023/04/25 09:28:16;;;;;;;12.37;11.87;;;9.60;48.80;;;;;;4993930;28;20421;-57
2023/04/25 09:30:42;;;;;;;13.73;12.43;;;9.60;49.00;;;;;;4994265;28;20419;-57
2023/04/25 09:33:10;;;;;;;10.83;10.33;;;9.70;48.20;;;;;;4993238;28;20178;-57
2023/04/25 09:35:45;;;;;;;11.30;10.70;;;9.70;47.40;;;;;;4994205;28;20802;-58
2023/04/25 09:38:18;;;;;;;10.80;10.30;;;9.70;46.90;;;;;;4993043;28;20451;-58
2023/04/25 09:40:46;;;;;;;10.30;9.50;;;9.80;47.60;;;;;;4993965;28;20764;-58
2023/04/25 09:43:22;;;;;;;11.27;10.77;;;9.70;44.90;;;;;;4993254;28;20413;-58
2023/04/25 09:49:52;;;;;;;10.80;10.20;;;9.60;46.50;;;;;;4975607;28;20413;-58
2023/04/25 09:52:20;;;;;;;11.20;10.60;;;9.80;45.40;;;;;;4995876;28;20468;-58
2023/04/25 09:54:47;;;;;;;10.80;10.30;;;9.90;45.50;;;;;;4993523;28;20467;-58
2023/04/25 09:57:25;;;;;;;10.53;9.83;;;9.80;46.40;;;;;;4991141;28;20467;-57
2023/04/25 09:59:53;;;;;;;10.80;10.30;;;9.70;47.00;;;;;;4992730;28;20413;-58
2023/04/25 10:02:24;;;;;;;9.37;8.93;;;9.80;48.00;;;;;;4992861;28;20415;-58
2023/04/25 10:04:54;;;;;;;10.50;10.00;;;9.80;46.90;;;;;;4992824;28;20431;-57
2023/04/25 10:07:34;;;;;;;10.50;10.00;;;9.60;47.60;;;;;;4992422;28;20417;-58
2023/04/25 10:10:03;;;;;;;9.37;9.07;;;9.50;46.80;;;;;;4992239;28;20443;-57
2023/04/25 10:12:33;;;;;;;9.53;9.13;;;9.50;46.20;;;;;;4992721;28;20436;-59
2023/04/25 10:15:00;;;;;;;9.70;9.30;;;9.50;46.90;;;;;;4993359;28;20540;-58
2023/04/25 10:17:29;;;;;;;9.90;9.50;;;9.50;48.30;;;;;;4993178;28;20858;-58
2023/04/25 10:19:55;;;;;;;8.97;8.67;;;9.40;47.70;;;;;;4994404;28;20436;-58
2023/04/25 10:22:26;;;;;;;9.00;8.70;;;9.50;47.70;;;;;;4993336;28;20799;-58
2023/04/25 10:24:52;;;;;;;9.67;9.27;;;9.70;45.60;;;;;;4994268;28;20265;-58
2023/04/25 10:27:19;;;;;;;9.73;9.40;;;9.60;45.40;;;;;;4992796;28;20416;-58
2023/04/25 10:29:44;;;;;;;10.03;9.57;;;9.80;44.20;;;;;;4992456;28;20436;-58
2023/04/25 10:32:10;;;;;;;9.10;8.80;;;9.80;42.90;;;;;;4992420;28;20421;-59
2023/04/25 10:34:46;;;;;;;8.50;8.13;;;9.70;43.80;;;;;;4992313;28;20209;-58
2023/04/25 10:37:12;;;;;;;9.10;8.80;;;9.90;43.30;;;;;;4993876;28;20178;-58
2023/04/25 10:39:42;;;;;;;8.80;8.40;;;9.80;43.60;;;;;;4992425;28;20424;-58
2023/04/25 10:42:08;;;;;;;9.13;8.83;;;9.70;45.80;;;;;;4993111;28;20835;-58
2023/04/25 10:44:34;;;;;;;9.17;8.87;;;9.80;43.90;;;;;;4992834;28;20433;-58
2023/04/25 10:47:02;;;;;;;8.90;8.50;;;9.70;45.30;;;;;;4993609;28;20918;-58
2023/04/25 10:49:42;;;;;;;9.90;9.57;;;9.60;45.20;;;;;;4993415;28;20425;-58
2023/04/25 10:52:26;;;;;;;9.37;9.00;;;9.80;45.00;;;;;;4991476;28;20429;-58
2023/04/25 10:54:57;;;;;;;11.80;11.20;;;10.10;42.80;;;;;;4993504;28;20476;-59
2023/04/25 10:57:39;;;;;;;12.47;11.77;;;10.40;40.90;;;;;;4993410;28;20417;-59
2023/04/25 11:00:14;;;;;;;10.60;10.20;;;10.40;40.70;;;;;;4991807;28;20428;-58
2023/04/25 11:02:46;;;;;;;11.50;10.80;;;10.50;40.80;;;;;;4991930;28;20436;-58
2023/04/25 11:05:21;;;;;;;10.67;10.27;;;10.60;39.70;;;;;;4993320;28;20623;-57
2023/04/25 11:07:56;;;;;;;11.70;11.07;;;10.50;40.50;;;;;;4993262;28;20425;-58
2023/04/25 11:10:28;;;;;;;12.03;11.53;;;10.50;39.10;;;;;;4992607;28;20462;-58
2023/04/25 11:12:54;;;;;;;11.73;11.23;;;10.60;38.50;;;;;;4990494;28;20433;-59
2023/04/25 11:15:20;;;;;;;11.53;11.07;;;10.60;37.80;;;;;;4992086;28;20837;-58
2023/04/25 11:17:46;;;;;;;11.97;11.30;;;10.60;38.60;;;;;;4992311;28;20500;-58
2023/04/25 11:20:13;;;;;;;12.10;11.60;;;10.70;38.00;;;;;;4992208;28;20264;-58
2023/04/25 11:22:40;;;;;;;11.80;11.20;;;10.80;37.60;;;;;;4991744;28;20417;-59
2023/04/25 11:25:07;;;;;;;11.10;10.60;;;10.80;36.80;;;;;;4992167;28;20429;-57
2023/04/25 11:27:34;;;;;;;10.77;10.03;;;10.70;37.50;;;;;;4991986;28;20452;-57
2023/04/25 11:30:19;;;;;;;9.90;9.50;;;10.70;34.70;;;;;;4991224;28;20432;-57
2023/04/25 11:32:45;;;;;;;9.63;9.33;;;10.50;35.10;;;;;;4992085;28;20424;-57
2023/04/25 11:35:11;;;;;;;10.00;9.60;;;10.20;37.50;;;;;;4991805;28;20476;-57
2023/04/25 11:37:39;;;;;;;10.10;9.80;;;10.30;36.60;;;;;;4989858;28;20421;-56
2023/04/25 11:40:06;;;;;;;11.07;10.60;;;9.70;40.20;;;;;;4990961;28;20417;-57
2023/04/25 11:42:33;;;;;;;10.80;10.40;;;9.50;42.10;;;;;;4991610;28;20512;-57
2023/04/25 11:44:59;;;;;;;10.53;10.13;;;9.30;43.20;;;;;;4992556;28;20437;-57
2023/04/25 11:47:32;;;;;;;10.83;10.47;;;9.10;43.60;;;;;;4992044;28;20511;-57
2023/04/25 11:49:59;;;;;;;10.73;10.33;;;9.10;42.80;;;;;;4989865;28;20433;-59
2023/04/25 11:52:45;;;;;;;11.40;10.87;;;9.10;45.50;;;;;;4991585;28;20902;-59
2023/04/25 11:55:14;;;;;;;10.83;10.43;;;9.30;46.20;;;;;;4991353;28;20538;-59
2023/04/25 11:57:41;;;;;;;10.83;10.37;;;9.20;44.40;;;;;;4992101;28;20413;-59
2023/04/25 12:00:16;;;;;;;12.07;11.30;;;9.30;44.70;;;;;;4990958;28;20475;-59
2023/04/25 12:02:43;;;;;;;11.20;10.80;;;9.20;45.20;;;;;;4991663;28;20440;-59
2023/04/25 12:05:11;;;;;;;11.40;10.90;;;9.30;44.00;;;;;;4992104;28;20436;-58
2023/04/25 12:07:41;;;;;;;11.30;10.63;;;9.30;44.10;;;;;;4990507;28;20425;-58
2023/04/25 12:10:11;;;;;;;10.40;10.00;;;9.10;44.20;;;;;;4991330;28;20452;-59
2023/04/25 12:12:37;;;;;;;12.57;11.77;;;9.00;44.90;;;;;;4991557;28;20504;-59
2023/04/25 12:15:25;;;;;;;12.20;11.60;;;9.00;46.10;;;;;;4991199;28;20472;-58
2023/04/25 12:17:52;;;;;;;11.30;10.90;;;9.10;46.40;;;;;;4991203;28;20413;-59
2023/04/25 12:20:20;;;;;;;11.80;11.40;;;9.50;44.30;;;;;;4991785;28;20421;-59
2023/04/25 12:22:48;;;;;;;12.10;11.60;;;9.60;42.30;;;;;;4992453;28;20412;-59
2023/04/25 12:25:33;;;;;;;12.53;12.00;;;9.40;43.40;;;;;;4990974;28;20760;-59
2023/04/25 12:28:20;;;;;;;12.70;12.00;;;9.40;44.90;;;;;;4991819;28;20507;-57
2023/04/25 12:31:14;;;;;;;12.43;11.80;;;9.50;44.80;;;;;;4991839;28;20524;-56
2023/04/25 12:33:42;;;;;;;13.50;12.80;;;9.40;45.40;;;;;;4989765;28;20516;-56
2023/04/25 12:36:08;;;;;;;14.07;13.40;;;9.30;43.30;;;;;;4991471;28;20835;-57
2023/04/25 12:38:39;;;;;;;13.63;13.03;;;9.50;43.70;;;;;;4991611;28;20421;-57
2023/04/25 12:41:06;;;;;;;13.83;13.23;;;9.70;43.80;;;;;;4991036;28;20421;-56
2023/04/25 12:43:32;;;;;;;13.70;13.07;;;9.80;42.80;;;;;;4991287;28;20420;-57